Terminal Aerodrome Forecast
Issued by NWS Memphis, TN

Home | Current Version | Previous Version | Text Only | Print | Product List | Glossary On
Versions: 1 2 3 4 5 6 7 8 9 10 11 12 13 14 15 16 17 18 19 20 21 22 23 24 25 26 27 28 29
000
FTUS44 KMEG 252320
TAFMEM
TAF
KMEM 252320Z 2600/2624 24012G18KT P6SM SKC
     FM260100 27006KT P6SM SKC
     FM261000 36006KT P6SM BKN012
      TEMPO 2611/2615 OVC006
     FM261500 02010KT P6SM OVC015
     FM261800 01012G20KT P6SM BKN025
     FM262100 02012G20KT P6SM BKN035=

USA.gov is the U.S. government's official web portal to all federal, state and local government web resources and services.